Time;durP1;ratioP1;P1;durP2;ratioP2;P2;SDS_P1;SDS_P2;PMS_P1;PMS_P2;Temp;Humidity;BMP_temperature;BMP_pressure;BME280_temperature;BME280_humidity;BME280_pressure;Samples;Min_cycle;Max_cycle;Signal;HPM_P1;HPM_P2
2023/07/01 00:01:39;;;;;;;14.65;11.20;;;;;;;-145.41;100.00;58600.66;4967301;28;20043;-74
2023/07/01 00:04:04;;;;;;;14.68;9.10;;;;;;;-145.41;100.00;58600.66;4971087;28;20033;-74
2023/07/01 00:06:29;;;;;;;15.77;8.43;;;;;;;-145.41;100.00;58600.66;4968247;28;20065;-74
2023/07/01 00:08:55;;;;;;;10.82;8.13;;;;;;;-145.41;100.00;58600.66;4951393;28;20086;-73
2023/07/01 00:11:21;;;;;;;12.75;8.40;;;;;;;-145.41;100.00;58600.66;4965843;28;20114;-74
2023/07/01 00:13:46;;;;;;;9.18;6.70;;;;;;;-145.41;100.00;58600.66;4963937;28;20572;-73
2023/07/01 00:16:13;;;;;;;12.75;7.95;;;;;;;-145.41;100.00;58600.66;4968732;28;20043;-73
2023/07/01 00:18:43;;;;;;;8.48;6.43;;;;;;;-145.41;100.00;58600.66;4966312;28;20457;-73
2023/07/01 00:21:09;;;;;;;8.23;6.07;;;;;;;-145.41;100.00;58600.66;4947111;28;20042;-74
2023/07/01 00:23:34;;;;;;;9.00;6.25;;;;;;;-145.41;100.00;58600.66;4964412;28;20027;-73
2023/07/01 00:26:00;;;;;;;8.30;6.35;;;;;;;-145.41;100.00;58600.66;4965969;28;20390;-73
2023/07/01 00:28:25;;;;;;;12.10;6.57;;;;;;;-145.41;100.00;58600.66;4965107;28;20061;-74
2023/07/01 00:30:51;;;;;;;8.80;6.38;;;;;;;-145.41;100.00;58600.66;4947912;28;20034;-73
2023/07/01 00:33:16;;;;;;;10.48;6.28;;;;;;;-145.41;100.00;58600.66;4949651;28;20046;-73
2023/07/01 00:35:42;;;;;;;14.52;7.30;;;;;;;-145.41;100.00;58600.66;4952035;28;20031;-73
2023/07/01 00:38:07;;;;;;;11.73;6.65;;;;;;;-145.41;100.00;58600.66;4954430;28;20035;-73
2023/07/01 00:40:32;;;;;;;9.82;7.75;;;;;;;-145.41;100.00;58600.66;4966929;28;20497;-73
2023/07/01 00:42:58;;;;;;;9.27;6.72;;;;;;;-145.41;100.00;58600.66;4969716;28;20565;-72
2023/07/01 00:45:23;;;;;;;13.02;7.15;;;;;;;-145.41;100.00;58600.66;4971023;28;20633;-73
2023/07/01 00:47:49;;;;;;;16.83;9.20;;;;;;;-145.41;100.00;58600.66;4971163;28;20486;-73
2023/07/01 00:50:15;;;;;;;9.63;6.13;;;;;;;-145.41;100.00;58600.66;4954148;29;20027;-73
2023/07/01 00:52:42;;;;;;;8.82;6.60;;;;;;;-145.41;100.00;58600.66;4970579;28;20046;-73
2023/07/01 00:55:08;;;;;;;9.48;6.68;;;;;;;-145.41;100.00;58600.66;4967730;28;20041;-73
2023/07/01 00:57:34;;;;;;;9.00;6.82;;;;;;;-145.41;100.00;58600.66;4970854;28;20174;-73
2023/07/01 01:00:12;;;;;;;10.80;6.05;;;;;;;-145.41;100.00;58600.66;4942021;28;20117;-73
2023/07/01 01:03:06;;;;;;;8.27;6.45;;;;;;;-145.41;100.00;58600.66;4968647;28;20114;-73
2023/07/01 01:05:44;;;;;;;9.90;5.88;;;;;;;-145.41;100.00;58600.66;4954103;28;20118;-73
2023/07/01 01:08:14;;;;;;;12.20;7.38;;;;;;;-145.41;100.00;58600.66;4960606;28;20029;-73
2023/07/01 01:10:43;;;;;;;10.55;6.15;;;;;;;-145.41;100.00;58600.66;4954700;28;20098;-73
2023/07/01 01:13:09;;;;;;;10.77;5.97;;;;;;;-145.41;100.00;58600.66;4956350;28;20107;-73
2023/07/01 01:15:36;;;;;;;10.85;7.30;;;;;;;-145.41;100.00;58600.66;4953082;28;20034;-73
2023/07/01 01:18:04;;;;;;;13.55;7.95;;;;;;;-145.41;100.00;58600.66;4950778;28;20038;-73
2023/07/01 01:20:33;;;;;;;9.40;6.78;;;;;;;-145.41;100.00;58600.66;4967920;28;20093;-73
2023/07/01 01:23:05;;;;;;;9.02;6.55;;;;;;;-145.41;100.00;58600.66;4972254;28;20045;-73
2023/07/01 01:25:39;;;;;;;11.45;7.85;;;;;;;-145.41;100.00;58600.66;4951656;28;20038;-72
2023/07/01 01:28:05;;;;;;;9.32;6.70;;;;;;;-145.41;100.00;58600.66;4967090;28;20050;-73
2023/07/01 01:30:32;;;;;;;9.32;6.38;;;;;;;-145.41;100.00;58600.66;4969716;28;20035;-73
2023/07/01 01:32:58;;;;;;;9.80;6.93;;;;;;;-145.41;100.00;58600.66;4967899;28;20041;-73
2023/07/01 01:35:25;;;;;;;11.05;6.75;;;;;;;-145.41;100.00;58600.66;4971368;28;20038;-73
2023/07/01 01:38:25;;;;;;;11.10;7.18;;;;;;;-145.41;100.00;58600.66;4971427;28;20438;-73
2023/07/01 01:40:58;;;;;;;10.27;6.95;;;;;;;-145.41;100.00;58600.66;4944927;28;20144;-73
2023/07/01 01:43:35;;;;;;;10.48;6.45;;;;;;;-145.41;100.00;58600.66;4952676;28;20035;-73
2023/07/01 01:46:02;;;;;;;9.38;6.43;;;;;;;-145.41;100.00;58600.66;4953842;28;20054;-74
2023/07/01 01:48:28;;;;;;;9.38;6.13;;;;;;;-145.41;100.00;58600.66;4956018;28;20109;-74
2023/07/01 01:50:56;;;;;;;12.10;7.95;;;;;;;-145.41;100.00;58600.66;4968488;28;20462;-73
2023/07/01 01:53:23;;;;;;;9.00;6.07;;;;;;;-145.41;100.00;58600.66;4970284;28;20038;-73
2023/07/01 01:55:50;;;;;;;9.18;6.65;;;;;;;-145.41;100.00;58600.66;4969184;28;20069;-73
2023/07/01 01:58:16;;;;;;;11.27;7.47;;;;;;;-145.41;100.00;58600.66;4940499;28;20066;-73
2023/07/01 02:00:41;;;;;;;10.25;6.07;;;;;;;-145.41;100.00;58600.66;4948966;28;20074;-74
2023/07/01 02:03:07;;;;;;;8.00;5.15;;;;;;;-145.41;100.00;58600.66;4956427;28;20034;-74
2023/07/01 02:05:33;;;;;;;12.88;7.53;;;;;;;-145.41;100.00;58600.66;4952864;28;20069;-73
2023/07/01 02:08:01;;;;;;;7.97;6.13;;;;;;;-145.41;100.00;58600.66;4970823;28;20038;-73
2023/07/01 02:10:28;;;;;;;12.27;7.90;;;;;;;-145.41;100.00;58600.66;4955757;28;20512;-73
2023/07/01 02:12:53;;;;;;;11.55;6.68;;;;;;;-145.41;100.00;58600.66;4956273;28;20034;-73
2023/07/01 02:15:19;;;;;;;10.25;7.47;;;;;;;-145.41;100.00;58600.66;4955004;28;20054;-73
2023/07/01 02:17:45;;;;;;;9.65;7.32;;;;;;;-145.41;100.00;58600.66;4972168;28;20093;-73
2023/07/01 02:20:11;;;;;;;14.30;7.97;;;;;;;-145.41;100.00;58600.66;4972754;28;20106;-73
2023/07/01 02:22:37;;;;;;;9.10;7.47;;;;;;;-145.41;100.00;58600.66;4955629;28;20487;-74
2023/07/01 02:25:03;;;;;;;12.02;7.55;;;;;;;-145.41;100.00;58600.66;4969257;28;20046;-73
2023/07/01 02:27:30;;;;;;;11.70;8.10;;;;;;;-145.41;100.00;58600.66;4970601;28;20039;-73
2023/07/01 02:29:56;;;;;;;10.20;7.43;;;;;;;-145.41;100.00;58600.66;4954416;28;20027;-73
2023/07/01 02:32:21;;;;;;;10.48;7.05;;;;;;;-145.41;100.00;58600.66;4967123;28;20539;-73
2023/07/01 02:34:46;;;;;;;8.55;6.60;;;;;;;-145.41;100.00;58600.66;4970669;28;20042;-72
2023/07/01 02:37:12;;;;;;;10.93;6.68;;;;;;;-145.41;100.00;58600.66;4951919;28;20027;-73
2023/07/01 02:39:38;;;;;;;10.95;7.40;;;;;;;-145.41;100.00;58600.66;4970170;28;21000;-73
2023/07/01 02:42:05;;;;;;;9.90;6.28;;;;;;;-145.41;100.00;58600.66;4949350;28;20482;-73
2023/07/01 02:44:31;;;;;;;12.32;7.22;;;;;;;-145.41;100.00;58600.66;4964205;28;20034;-73
2023/07/01 02:46:56;;;;;;;9.10;7.15;;;;;;;-145.41;100.00;58600.66;4953580;28;20039;-74
2023/07/01 02:49:21;;;;;;;11.82;8.55;;;;;;;-145.41;100.00;58600.66;4954874;28;20680;-74
2023/07/01 02:51:47;;;;;;;10.45;8.43;;;;;;;-145.41;100.00;58600.66;4972014;28;20027;-72
2023/07/01 02:54:12;;;;;;;11.13;8.18;;;;;;;-145.41;100.00;58600.66;4955541;28;20034;-73
2023/07/01 02:56:38;;;;;;;9.68;7.10;;;;;;;-145.41;100.00;58600.66;4966370;28;20426;-73
2023/07/01 02:59:03;;;;;;;13.77;8.65;;;;;;;-145.41;100.00;58600.66;4949797;28;20035;-73
2023/07/01 03:01:29;;;;;;;14.77;8.23;;;;;;;-145.41;100.00;58600.66;4952135;28;20038;-73
2023/07/01 03:03:55;;;;;;;12.07;6.93;;;;;;;-145.41;100.00;58600.66;4953591;28;20053;-73
2023/07/01 03:06:21;;;;;;;10.98;7.82;;;;;;;-145.41;100.00;58600.66;4949344;28;20031;-72
2023/07/01 03:08:46;;;;;;;11.30;8.35;;;;;;;-145.41;100.00;58600.66;4954470;28;20085;-73
2023/07/01 03:11:11;;;;;;;10.93;8.10;;;;;;;-145.41;100.00;58600.66;4954012;28;20103;-73
2023/07/01 03:13:37;;;;;;;14.18;8.27;;;;;;;-145.41;100.00;58600.66;4953823;28;20108;-73
2023/07/01 03:16:06;;;;;;;15.70;8.80;;;;;;;-145.41;100.00;58600.66;4972349;28;20046;-73
2023/07/01 03:18:35;;;;;;;15.52;9.25;;;;;;;-145.41;100.00;58600.66;4971749;28;20034;-73
2023/07/01 03:21:01;;;;;;;15.10;9.27;;;;;;;-145.41;100.00;58600.66;4967363;28;20040;-73
2023/07/01 03:23:30;;;;;;;11.10;7.88;;;;;;;-145.41;100.00;58600.66;4953437;28;20031;-74
2023/07/01 03:25:56;;;;;;;19.08;8.45;;;;;;;-145.41;100.00;58600.66;4972080;28;20035;-73
2023/07/01 03:28:22;;;;;;;11.23;8.85;;;;;;;-145.41;100.00;58600.66;4952277;28;20069;-73
2023/07/01 03:30:47;;;;;;;9.05;7.05;;;;;;;-145.41;100.00;58600.66;4954356;28;20050;-73
2023/07/01 03:33:13;;;;;;;14.15;9.20;;;;;;;-145.41;100.00;58600.66;4972126;28;20114;-73
2023/07/01 03:35:38;;;;;;;13.57;7.32;;;;;;;-145.41;100.00;58600.66;4972287;28;20026;-74
2023/07/01 03:38:04;;;;;;;10.25;7.13;;;;;;;-145.41;100.00;58600.66;4971947;28;20030;-74
2023/07/01 03:40:30;;;;;;;12.10;7.80;;;;;;;-145.41;100.00;58600.66;4953179;28;20034;-73
2023/07/01 03:42:55;;;;;;;13.52;8.55;;;;;;;-145.41;100.00;58600.66;4972290;28;20038;-73
2023/07/01 03:45:21;;;;;;;13.40;7.90;;;;;;;-145.41;100.00;58600.66;4953341;28;20421;-74
2023/07/01 03:47:46;;;;;;;11.88;7.57;;;;;;;-145.41;100.00;58600.66;4971760;28;20170;-73
2023/07/01 03:50:13;;;;;;;12.02;7.85;;;;;;;-145.41;100.00;58600.66;4971515;28;20031;-73
2023/07/01 03:52:39;;;;;;;11.50;9.02;;;;;;;-145.41;100.00;58600.66;4972025;28;20526;-73
2023/07/01 03:55:06;;;;;;;18.75;8.85;;;;;;;-145.41;100.00;58600.66;4968297;28;20516;-73
2023/07/01 03:57:33;;;;;;;12.32;8.63;;;;;;;-145.41;100.00;58600.66;4971310;28;20043;-73
2023/07/01 03:59:58;;;;;;;17.85;9.32;;;;;;;-145.41;100.00;58600.66;4953755;28;20038;-73
2023/07/01 04:02:24;;;;;;;16.58;8.95;;;;;;;-145.41;100.00;58600.66;4969597;28;20027;-73
2023/07/01 04:04:49;;;;;;;16.55;8.55;;;;;;;-145.41;100.00;58600.66;4972002;28;20109;-73
2023/07/01 04:07:15;;;;;;;13.50;8.43;;;;;;;-145.41;100.00;58600.66;4971830;28;20030;-73
2023/07/01 04:09:41;;;;;;;10.70;8.32;;;;;;;-145.41;100.00;58600.66;4953977;28;20058;-73
2023/07/01 04:12:07;;;;;;;14.95;8.60;;;;;;;-145.41;100.00;58600.66;4971882;28;20071;-73
2023/07/01 04:14:33;;;;;;;16.33;9.50;;;;;;;-145.41;100.00;58600.66;4973556;28;20077;-73
2023/07/01 04:16:58;;;;;;;13.23;9.60;;;;;;;-145.41;100.00;58600.66;4974543;28;20058;-73
2023/07/01 04:19:23;;;;;;;14.63;8.43;;;;;;;-145.41;100.00;58600.66;4974879;28;20113;-73
2023/07/01 04:21:48;;;;;;;12.80;8.88;;;;;;;-145.41;100.00;58600.66;4975415;28;20080;-73
2023/07/01 04:24:14;;;;;;;17.20;8.55;;;;;;;-145.41;100.00;58600.66;4975559;28;20070;-73
2023/07/01 04:26:41;;;;;;;14.68;9.07;;;;;;;-145.41;100.00;58600.66;4971773;28;20035;-73
2023/07/01 04:29:07;;;;;;;20.13;9.55;;;;;;;-145.41;100.00;58600.66;4953637;28;20034;-73
2023/07/01 04:31:33;;;;;;;17.02;8.68;;;;;;;-145.41;100.00;58600.66;4973613;28;20037;-73
2023/07/01 04:33:58;;;;;;;16.10;9.70;;;;;;;-145.41;100.00;58600.66;4975426;28;20030;-72
2023/07/01 04:36:23;;;;;;;14.05;8.27;;;;;;;-145.41;100.00;58600.66;4972525;28;20034;-74
2023/07/01 04:38:49;;;;;;;12.75;8.25;;;;;;;-145.41;100.00;58600.66;4971650;28;20043;-73
2023/07/01 04:41:14;;;;;;;17.67;8.23;;;;;;;-145.41;100.00;58600.66;4975023;28;20042;-73
2023/07/01 04:43:40;;;;;;;18.73;9.68;;;;;;;-145.41;100.00;58600.66;4975110;28;20039;-73
2023/07/01 04:46:05;;;;;;;14.93;9.05;;;;;;;-145.41;100.00;58600.66;4957752;28;20461;-73
2023/07/01 04:48:31;;;;;;;11.77;7.22;;;;;;;-145.41;100.00;58600.66;4974629;28;20042;-73
2023/07/01 04:50:56;;;;;;;18.33;9.25;;;;;;;-145.41;100.00;58600.66;4974244;28;20031;-74
2023/07/01 04:53:22;;;;;;;15.68;9.00;;;;;;;-145.41;100.00;58600.66;4956978;28;20058;-73
2023/07/01 04:55:47;;;;;;;14.63;8.57;;;;;;;-145.41;100.00;58600.66;4974676;28;20379;-73
2023/07/01 04:58:13;;;;;;;17.65;8.52;;;;;;;-145.41;100.00;58600.66;4974637;28;20434;-72
2023/07/01 05:00:38;;;;;;;19.30;8.63;;;;;;;-145.41;100.00;58600.66;4974242;28;20030;-73
2023/07/01 05:03:04;;;;;;;17.65;8.48;;;;;;;-145.41;100.00;58600.66;4972771;28;20070;-73
2023/07/01 05:05:30;;;;;;;19.10;8.38;;;;;;;-145.41;100.00;58600.66;4974124;28;20081;-73
2023/07/01 05:07:55;;;;;;;16.15;9.65;;;;;;;-145.41;100.00;58600.66;4974600;28;20034;-73
2023/07/01 05:10:20;;;;;;;18.60;9.07;;;;;;;-145.41;100.00;58600.66;4974014;28;20066;-74
2023/07/01 05:12:46;;;;;;;19.42;8.38;;;;;;;-145.41;100.00;58600.66;4956917;28;20035;-73
2023/07/01 05:15:11;;;;;;;14.60;7.35;;;;;;;-145.41;100.00;58600.66;4973572;28;20122;-73
2023/07/01 05:17:37;;;;;;;18.15;8.32;;;;;;;-145.41;100.00;58600.66;4973904;28;20034;-73
2023/07/01 05:20:03;;;;;;;16.05;7.75;;;;;;;-145.41;100.00;58600.66;4955546;28;20046;-73
2023/07/01 05:22:28;;;;;;;14.82;8.20;;;;;;;-145.41;100.00;58600.66;4974273;28;20039;-73
2023/07/01 05:24:54;;;;;;;15.88;7.78;;;;;;;-145.41;100.00;58600.66;4973020;28;20046;-73
2023/07/01 05:27:19;;;;;;;14.55;6.82;;;;;;;-145.41;100.00;58600.66;4973653;28;20187;-74
2023/07/01 05:29:44;;;;;;;11.23;6.45;;;;;;;-145.41;100.00;58600.66;4973791;28;20038;-74
2023/07/01 05:32:09;;;;;;;15.90;7.13;;;;;;;-145.41;100.00;58600.66;4973913;28;20038;-73
2023/07/01 05:34:35;;;;;;;14.82;6.47;;;;;;;-145.41;100.00;58600.66;4973969;28;20046;-73
2023/07/01 05:37:00;;;;;;;18.70;7.72;;;;;;;-145.41;100.00;58600.66;4956568;28;20023;-73
2023/07/01 05:39:28;;;;;;;14.65;7.10;;;;;;;-145.41;100.00;58600.66;4973706;28;20545;-72
2023/07/01 05:41:54;;;;;;;11.70;6.72;;;;;;;-145.41;100.00;58600.66;4956626;28;20517;-73
2023/07/01 05:44:19;;;;;;;14.02;6.43;;;;;;;-145.41;100.00;58600.66;4973815;28;20062;-73
2023/07/01 05:46:44;;;;;;;15.50;6.68;;;;;;;-145.41;100.00;58600.66;4973758;28;20035;-73
2023/07/01 05:49:10;;;;;;;11.45;6.93;;;;;;;-145.41;100.00;58600.66;4973050;28;20035;-73
2023/07/01 05:51:37;;;;;;;15.20;6.03;;;;;;;-145.41;100.00;58600.66;4973907;28;20038;-74
2023/07/01 05:54:02;;;;;;;11.55;5.55;;;;;;;-145.41;100.00;58600.66;4956561;28;20117;-73
2023/07/01 05:56:29;;;;;;;8.20;5.28;;;;;;;-145.41;100.00;58600.66;4973787;28;20118;-72
2023/07/01 05:58:54;;;;;;;12.63;6.07;;;;;;;-145.41;100.00;58600.66;4955768;28;20030;-73
2023/07/01 06:01:20;;;;;;;15.30;5.47;;;;;;;-145.41;100.00;58600.66;4973163;28;20512;-73
2023/07/01 06:03:45;;;;;;;11.77;6.35;;;;;;;-145.41;100.00;58600.66;4973175;28;20606;-73
2023/07/01 06:06:10;;;;;;;9.70;5.15;;;;;;;-145.41;100.00;58600.66;4973527;28;20049;-73
2023/07/01 06:08:36;;;;;;;10.43;4.85;;;;;;;-145.41;100.00;58600.66;4973249;28;20078;-74
2023/07/01 06:11:01;;;;;;;8.50;4.68;;;;;;;-145.41;100.00;58600.66;4970029;28;20027;-73
2023/07/01 06:13:26;;;;;;;11.65;4.88;;;;;;;-145.41;100.00;58600.66;4973303;28;20037;-72
2023/07/01 06:15:52;;;;;;;11.75;5.25;;;;;;;-145.41;100.00;58600.66;4972503;28;20050;-73
2023/07/01 06:18:17;;;;;;;14.35;4.85;;;;;;;-145.41;100.00;58600.66;4955990;28;20062;-73
2023/07/01 06:20:43;;;;;;;9.15;4.82;;;;;;;-145.41;100.00;58600.66;4972347;28;20445;-73
2023/07/01 06:23:08;;;;;;;14.15;5.13;;;;;;;-145.41;100.00;58600.66;4955816;28;20114;-74
2023/07/01 06:25:34;;;;;;;11.48;3.67;;;;;;;-145.41;100.00;58600.66;4973382;28;20061;-73
2023/07/01 06:27:59;;;;;;;8.68;3.58;;;;;;;-145.41;100.00;58600.66;4955803;28;20043;-73
2023/07/01 06:30:24;;;;;;;10.07;3.78;;;;;;;-145.41;100.00;58600.66;4972641;28;20566;-73
2023/07/01 06:32:50;;;;;;;6.40;3.88;;;;;;;-145.41;100.00;58600.66;4973573;28;20549;-74
2023/07/01 06:35:15;;;;;;;8.77;4.20;;;;;;;-145.41;100.00;58600.66;4972341;28;20058;-73
2023/07/01 06:37:40;;;;;;;9.02;4.07;;;;;;;-145.41;100.00;58600.66;4972684;28;20509;-73
2023/07/01 06:40:07;;;;;;;9.00;3.33;;;;;;;-145.41;100.00;58600.66;4972199;28;20654;-73
2023/07/01 06:42:34;;;;;;;7.13;3.53;;;;;;;-145.41;100.00;58600.66;4972587;28;20065;-73
2023/07/01 06:45:00;;;;;;;5.47;3.03;;;;;;;-145.41;100.00;58600.66;4973024;28;20026;-73
2023/07/01 06:47:25;;;;;;;9.73;3.78;;;;;;;-145.41;100.00;58600.66;4972626;28;20417;-73
2023/07/01 06:49:51;;;;;;;9.10;3.17;;;;;;;-145.41;100.00;58600.66;4972065;28;20096;-73
2023/07/01 06:52:16;;;;;;;7.13;2.58;;;;;;;-145.41;100.00;58600.66;4955496;28;20046;-73
2023/07/01 06:54:42;;;;;;;6.68;2.80;;;;;;;-145.41;100.00;58600.66;4972564;28;20066;-73
2023/07/01 06:57:07;;;;;;;7.00;2.50;;;;;;;-145.41;100.00;58600.66;4954945;28;20557;-73
2023/07/01 06:59:32;;;;;;;5.35;2.10;;;;;;;-145.41;100.00;58600.66;4971899;28;20394;-73
2023/07/01 07:01:57;;;;;;;4.70;2.30;;;;;;;-145.41;100.00;58600.66;4954821;28;20476;-73
2023/07/01 07:04:23;;;;;;;5.25;2.20;;;;;;;-145.41;100.00;58600.66;4955528;28;20355;-73
2023/07/01 07:06:48;;;;;;;6.47;2.40;;;;;;;-145.41;100.00;58600.66;4971786;28;20410;-73
2023/07/01 07:09:15;;;;;;;5.75;2.80;;;;;;;-145.41;100.00;58600.66;4969844;28;20482;-73
2023/07/01 07:11:41;;;;;;;6.80;2.53;;;;;;;-145.41;100.00;58600.66;4971968;28;20035;-74
2023/07/01 07:14:06;;;;;;;6.25;2.50;;;;;;;-145.41;100.00;58600.66;4971650;28;20038;-74
2023/07/01 07:16:34;;;;;;;5.07;2.00;;;;;;;-145.41;100.00;58600.66;4955154;28;20045;-72
2023/07/01 07:19:00;;;;;;;6.30;2.20;;;;;;;-145.41;100.00;58600.66;4970126;28;20450;-73
2023/07/01 07:21:25;;;;;;;5.38;2.15;;;;;;;-145.41;100.00;58600.66;4972028;28;20045;-73
2023/07/01 07:23:50;;;;;;;8.75;1.98;;;;;;;-145.41;100.00;58600.66;4972304;28;20057;-73
2023/07/01 07:26:16;;;;;;;4.68;1.67;;;;;;;-145.41;100.00;58600.66;4970403;28;20035;-72
2023/07/01 07:28:41;;;;;;;7.32;1.88;;;;;;;-145.41;100.00;58600.66;4971512;28;20390;-73
2023/07/01 07:31:06;;;;;;;5.05;1.75;;;;;;;-145.41;100.00;58600.66;4971845;28;20043;-73
2023/07/01 07:33:31;;;;;;;6.63;1.92;;;;;;;-145.41;100.00;58600.66;4954777;28;20117;-72
2023/07/01 07:35:57;;;;;;;13.07;2.22;;;;;;;-145.41;100.00;58600.66;4972020;28;20038;-73
2023/07/01 07:38:22;;;;;;;4.82;1.65;;;;;;;-145.41;100.00;58600.66;4971878;28;20049;-73
2023/07/01 07:40:47;;;;;;;6.25;2.03;;;;;;;-145.41;100.00;58600.66;4971242;28;20046;-73
2023/07/01 07:43:13;;;;;;;8.57;2.47;;;;;;;-145.41;100.00;58600.66;4954978;28;20042;-74
2023/07/01 07:45:38;;;;;;;3.90;1.58;;;;;;;-145.41;100.00;58600.66;4971882;28;20038;-73
2023/07/01 07:48:07;;;;;;;5.82;1.45;;;;;;;-145.41;100.00;58600.66;4956878;28;20041;-74
2023/07/01 07:50:35;;;;;;;6.68;1.63;;;;;;;-145.41;100.00;58600.66;4977986;28;20023;-73
2023/07/01 07:53:00;;;;;;;5.13;1.50;;;;;;;-145.41;100.00;58600.66;4978282;28;20125;-73
2023/07/01 07:55:33;;;;;;;3.70;1.52;;;;;;;-145.41;100.00;58600.66;4945021;28;20037;-74
2023/07/01 07:57:58;;;;;;;5.57;1.67;;;;;;;-145.41;100.00;58600.66;4978270;28;20031;-73
2023/07/01 08:00:24;;;;;;;3.67;1.45;;;;;;;-145.41;100.00;58600.66;4959522;28;20050;-73
2023/07/01 08:02:49;;;;;;;4.80;1.58;;;;;;;-145.41;100.00;58600.66;4978308;28;20046;-73
2023/07/01 08:05:18;;;;;;;6.60;1.77;;;;;;;-145.41;100.00;58600.66;4960605;28;20123;-73
2023/07/01 08:07:46;;;;;;;6.45;1.40;;;;;;;-145.41;100.00;58600.66;4978072;28;20031;-73
2023/07/01 08:10:11;;;;;;;5.07;1.50;;;;;;;-145.41;100.00;58600.66;4972654;28;20054;-73
2023/07/01 08:12:37;;;;;;;4.93;1.70;;;;;;;-145.41;100.00;58600.66;4978323;28;20065;-73
2023/07/01 08:15:03;;;;;;;7.18;1.85;;;;;;;-145.41;100.00;58600.66;4959529;28;20493;-73
2023/07/01 08:17:28;;;;;;;4.80;1.58;;;;;;;-145.41;100.00;58600.66;4978086;28;20050;-73
2023/07/01 08:19:53;;;;;;;6.93;1.48;;;;;;;-145.41;100.00;58600.66;4959603;28;20046;-73
2023/07/01 08:22:19;;;;;;;3.45;1.50;;;;;;;-145.41;100.00;58600.66;4978275;28;20084;-73
2023/07/01 08:24:44;;;;;;;6.32;1.52;;;;;;;-145.41;100.00;58600.66;4960613;28;20061;-74
2023/07/01 08:27:09;;;;;;;4.43;1.40;;;;;;;-145.41;100.00;58600.66;4977938;28;20042;-73
2023/07/01 08:29:35;;;;;;;7.13;1.45;;;;;;;-145.41;100.00;58600.66;4977561;28;20448;-73
2023/07/01 08:32:00;;;;;;;5.35;1.20;;;;;;;-145.41;100.00;58600.66;4978263;28;20461;-73
2023/07/01 08:34:25;;;;;;;6.25;1.38;;;;;;;-145.41;100.00;58600.66;4974438;28;20033;-73
2023/07/01 08:36:51;;;;;;;4.40;1.20;;;;;;;-145.41;100.00;58600.66;4977357;28;20042;-72
2023/07/01 08:39:16;;;;;;;4.53;1.30;;;;;;;-145.41;100.00;58600.66;4977390;28;20042;-73
2023/07/01 08:42:02;;;;;;;3.13;1.20;;;;;;;-145.41;100.00;58600.66;4978301;28;20049;-73
2023/07/01 08:44:28;;;;;;;4.22;1.27;;;;;;;-145.41;100.00;58600.66;4975668;28;20485;-73
2023/07/01 08:46:55;;;;;;;3.72;1.08;;;;;;;-145.41;100.00;58600.66;4963022;28;20034;-73
2023/07/01 08:49:23;;;;;;;5.68;1.40;;;;;;;-145.41;100.00;58600.66;4959904;28;20049;-74
2023/07/01 08:51:54;;;;;;;2.40;1.10;;;;;;;-145.41;100.00;58600.66;4960784;28;20097;-73
2023/07/01 08:54:20;;;;;;;2.90;1.13;;;;;;;-145.41;100.00;58600.66;4975780;28;20026;-73
2023/07/01 08:56:48;;;;;;;4.35;1.75;;;;;;;-145.41;100.00;58600.66;4960087;28;20102;-73
2023/07/01 08:59:14;;;;;;;2.97;0.80;;;;;;;-145.41;100.00;58600.66;4976341;28;20065;-73
2023/07/01 09:01:42;;;;;;;3.67;1.27;;;;;;;-145.41;100.00;58600.66;4974770;28;20481;-73
2023/07/01 09:04:08;;;;;;;5.60;1.27;;;;;;;-145.41;100.00;58600.66;4970479;28;20113;-73
2023/07/01 09:06:33;;;;;;;4.03;1.67;;;;;;;-145.41;100.00;58600.66;4973771;28;20070;-73
2023/07/01 09:08:58;;;;;;;4.13;1.48;;;;;;;-145.41;100.00;58600.66;4974038;28;20113;-73
2023/07/01 09:11:24;;;;;;;3.58;1.30;;;;;;;-145.41;100.00;58600.66;4974448;28;20069;-73
2023/07/01 09:13:55;;;;;;;3.50;1.30;;;;;;;-145.41;100.00;58600.66;4973241;28;20143;-73
2023/07/01 09:16:34;;;;;;;3.50;1.10;;;;;;;-145.41;100.00;58600.66;4966003;28;20423;-73
2023/07/01 09:19:06;;;;;;;6.50;1.45;;;;;;;-145.41;100.00;58600.66;4973818;28;20061;-73
2023/07/01 09:21:32;;;;;;;3.13;1.38;;;;;;;-145.41;100.00;58600.66;4956858;28;20031;-73
2023/07/01 09:23:59;;;;;;;5.97;1.48;;;;;;;-145.41;100.00;58600.66;4974517;28;20085;-73
2023/07/01 09:26:26;;;;;;;3.00;1.30;;;;;;;-145.41;100.00;58600.66;4974568;28;20167;-73
2023/07/01 09:28:53;;;;;;;3.20;1.20;;;;;;;-145.41;100.00;58600.66;4956661;28;20101;-73
2023/07/01 09:31:19;;;;;;;6.05;1.95;;;;;;;-145.41;100.00;58600.66;4974217;28;20147;-73
2023/07/01 09:34:01;;;;;;;3.35;1.00;;;;;;;-145.41;100.00;58600.66;4974277;28;20507;-73
2023/07/01 09:36:28;;;;;;;3.88;1.33;;;;;;;-145.41;100.00;58600.66;4958664;28;20027;-74
2023/07/01 09:38:54;;;;;;;6.85;1.30;;;;;;;-145.41;100.00;58600.66;4973176;28;20047;-74
2023/07/01 09:41:23;;;;;;;3.10;1.10;;;;;;;-145.41;100.00;58600.66;4974260;28;20062;-73
2023/07/01 09:43:50;;;;;;;6.53;1.33;;;;;;;-145.41;100.00;58600.66;4956806;28;20063;-73
2023/07/01 09:46:16;;;;;;;4.90;1.10;;;;;;;-145.41;100.00;58600.66;4970511;28;20031;-73
2023/07/01 09:48:51;;;;;;;3.67;1.02;;;;;;;-145.41;100.00;58600.66;4973608;28;20035;-73
2023/07/01 09:51:17;;;;;;;3.67;1.52;;;;;;;-145.41;100.00;58600.66;4956555;28;20030;-73
2023/07/01 09:53:42;;;;;;;3.40;1.48;;;;;;;-145.41;100.00;58600.66;4973377;28;20031;-73
2023/07/01 09:56:08;;;;;;;3.63;1.40;;;;;;;-145.41;100.00;58600.66;4974184;28;20035;-73
2023/07/01 09:58:34;;;;;;;4.63;1.20;;;;;;;-145.41;100.00;58600.66;4952454;28;20054;-74
2023/07/01 10:01:00;;;;;;;2.78;1.00;;;;;;;-145.41;100.00;58600.66;4973280;28;20047;-73
2023/07/01 10:03:26;;;;;;;6.72;1.67;;;;;;;-145.41;100.00;58600.66;4956260;28;20027;-74
2023/07/01 10:05:52;;;;;;;3.13;1.20;;;;;;;-145.41;100.00;58600.66;4973210;28;20446;-73
2023/07/01 10:08:18;;;;;;;5.10;1.50;;;;;;;-145.41;100.00;58600.66;4973822;28;20401;-73
2023/07/01 10:10:45;;;;;;;2.95;0.90;;;;;;;-145.41;100.00;58600.66;4972610;28;20019;-73
2023/07/01 10:13:12;;;;;;;4.68;1.17;;;;;;;-145.41;100.00;58600.66;4972874;28;20038;-74
2023/07/01 10:15:39;;;;;;;2.95;0.98;;;;;;;-145.41;100.00;58600.66;4971821;28;20027;-73
2023/07/01 10:18:20;;;;;;;4.65;1.35;;;;;;;-145.41;100.00;58600.66;4973380;28;20031;-74
2023/07/01 10:20:46;;;;;;;3.08;1.20;;;;;;;-145.41;100.00;58600.66;4969549;28;20046;-73
2023/07/01 10:23:11;;;;;;;3.10;1.50;;;;;;;-145.41;100.00;58600.66;4956218;28;20042;-73
2023/07/01 10:25:38;;;;;;;2.40;1.00;;;;;;;-145.41;100.00;58600.66;4972952;28;20034;-73
2023/07/01 10:28:10;;;;;;;4.93;1.67;;;;;;;-145.41;100.00;58600.66;4971989;28;20039;-73
2023/07/01 10:31:02;;;;;;;5.03;1.50;;;;;;;-145.41;100.00;58600.66;4972696;28;20031;-73
2023/07/01 10:33:27;;;;;;;3.97;1.55;;;;;;;-145.41;100.00;58600.66;4962944;28;20039;-73
2023/07/01 10:36:07;;;;;;;5.32;1.40;;;;;;;-145.41;100.00;58600.66;4955804;28;20413;-73
2023/07/01 10:38:34;;;;;;;2.40;1.10;;;;;;;-145.41;100.00;58600.66;4972890;28;20406;-73
2023/07/01 10:41:00;;;;;;;6.70;1.30;;;;;;;-145.41;100.00;58600.66;4955127;28;20034;-73
2023/07/01 10:43:33;;;;;;;5.65;1.40;;;;;;;-145.41;100.00;58600.66;4972764;28;20031;-74
2023/07/01 10:46:20;;;;;;;4.60;1.50;;;;;;;-145.41;100.00;58600.66;4972663;28;20045;-73
2023/07/01 10:49:03;;;;;;;4.18;1.27;;;;;;;-145.41;100.00;58600.66;4970532;28;20046;-72
2023/07/01 10:51:44;;;;;;;4.07;1.40;;;;;;;-145.41;100.00;58600.66;4971038;28;20035;-74
2023/07/01 10:54:09;;;;;;;3.70;1.33;;;;;;;-145.41;100.00;58600.66;4971837;28;20035;-73
2023/07/01 10:56:38;;;;;;;4.07;1.50;;;;;;;-145.41;100.00;58600.66;4972637;28;20490;-74
2023/07/01 10:59:25;;;;;;;5.15;1.58;;;;;;;-145.41;100.00;58600.66;4971764;28;20394;-73
2023/07/01 11:01:56;;;;;;;5.45;1.63;;;;;;;-145.41;100.00;58600.66;4970919;28;20437;-73
2023/07/01 11:04:22;;;;;;;4.20;1.77;;;;;;;-145.41;100.00;58600.66;4972765;28;20477;-73
2023/07/01 11:06:54;;;;;;;3.55;1.40;;;;;;;-145.41;100.00;58600.66;4972445;28;20126;-73